sensor_id;sensor_type;location;lat;lon;timestamp;pressure;altitude;pressure_sealevel;temperature;humidity
76590;BME280;65471;55.908;37.880;2024-03-23T00:53:54;98797.44;;;1.41;79.07
76590;BME280;65471;55.908;37.880;2024-03-23T00:56:21;98788.03;;;1.45;79.24
76590;BME280;65471;55.908;37.880;2024-03-23T00:58:47;98795.03;;;1.46;79.12
76590;BME280;65471;55.908;37.880;2024-03-23T01:01:12;98791.53;;;1.45;79.65
76590;BME280;65471;55.908;37.880;2024-03-23T01:03:38;98793.38;;;1.45;79.43
76590;BME280;65471;55.908;37.880;2024-03-23T01:06:04;98784.38;;;1.46;80.16
76590;BME280;65471;55.908;37.880;2024-03-23T01:08:30;98769.41;;;1.45;80.52
76590;BME280;65471;55.908;37.880;2024-03-23T01:10:57;98774.13;;;1.43;79.71
76590;BME280;65471;55.908;37.880;2024-03-23T01:13:23;98775.13;;;1.42;80.49
76590;BME280;65471;55.908;37.880;2024-03-23T01:15:50;98761.16;;;1.40;80.90
76590;BME280;65471;55.908;37.880;2024-03-23T01:18:21;98774.47;;;1.40;80.80
76590;BME280;65471;55.908;37.880;2024-03-23T01:20:48;98758.09;;;1.36;81.01
76590;BME280;65471;55.908;37.880;2024-03-23T01:23:14;98755.38;;;1.29;81.60
76590;BME280;65471;55.908;37.880;2024-03-23T01:25:40;98760.31;;;1.32;81.75
76590;BME280;65471;55.908;37.880;2024-03-23T01:28:07;98752.31;;;1.32;81.60
76590;BME280;65471;55.908;37.880;2024-03-23T01:30:34;98750.91;;;1.36;81.76
76590;BME280;65471;55.908;37.880;2024-03-23T01:33:01;98755.22;;;1.37;82.05
76590;BME280;65471;55.908;37.880;2024-03-23T01:35:28;98751.09;;;1.35;82.28
76590;BME280;65471;55.908;37.880;2024-03-23T01:37:54;98741.88;;;1.31;82.51
76590;BME280;65471;55.908;37.880;2024-03-23T01:40:20;98740.03;;;1.31;83.04
76590;BME280;65471;55.908;37.880;2024-03-23T01:42:56;98732.66;;;1.33;83.41
76590;BME280;65471;55.908;37.880;2024-03-23T01:45:22;98731.41;;;1.29;83.17
76590;BME280;65471;55.908;37.880;2024-03-23T01:47:50;98714.63;;;1.29;83.88
76590;BME280;65471;55.908;37.880;2024-03-23T01:50:18;98713.19;;;1.26;84.22
76590;BME280;65471;55.908;37.880;2024-03-23T01:52:44;98716.25;;;1.23;84.34
76590;BME280;65471;55.908;37.880;2024-03-23T01:55:10;98721.16;;;1.26;85.06
76590;BME280;65471;55.908;37.880;2024-03-23T01:57:36;98710.06;;;1.16;84.89
76590;BME280;65471;55.908;37.880;2024-03-23T02:00:02;98711.31;;;1.27;85.14
76590;BME280;65471;55.908;37.880;2024-03-23T02:02:31;98710.31;;;1.28;85.33
76590;BME280;65471;55.908;37.880;2024-03-23T02:04:57;98708.47;;;1.28;85.41
76590;BME280;65471;55.908;37.880;2024-03-23T02:07:24;98701.50;;;1.27;85.81
76590;BME280;65471;55.908;37.880;2024-03-23T02:09:51;98691.06;;;1.26;86.32
76590;BME280;65471;55.908;37.880;2024-03-23T02:12:18;98693.53;;;1.27;85.91
76590;BME280;65471;55.908;37.880;2024-03-23T02:14:44;98683.88;;;1.26;86.21
76590;BME280;65471;55.908;37.880;2024-03-23T02:17:10;98680.22;;;1.27;86.86
76590;BME280;65471;55.908;37.880;2024-03-23T02:19:36;98676.91;;;1.25;87.08
76590;BME280;65471;55.908;37.880;2024-03-23T02:22:02;98674.88;;;1.27;86.87
76590;BME280;65471;55.908;37.880;2024-03-23T02:24:29;98669.56;;;1.27;87.11
76590;BME280;65471;55.908;37.880;2024-03-23T02:26:55;98663.03;;;1.30;87.36
76590;BME280;65471;55.908;37.880;2024-03-23T02:29:21;98663.63;;;1.32;87.43
76590;BME280;65471;55.908;37.880;2024-03-23T02:31:47;98654.84;;;1.31;87.42
76590;BME280;65471;55.908;37.880;2024-03-23T02:34:12;98659.50;;;1.29;87.67
76590;BME280;65471;55.908;37.880;2024-03-23T02:36:38;98643.34;;;1.31;87.99
76590;BME280;65471;55.908;37.880;2024-03-23T02:39:04;98640.47;;;1.32;87.95
76590;BME280;65471;55.908;37.880;2024-03-23T02:41:30;98634.34;;;1.32;88.39
76590;BME280;65471;55.908;37.880;2024-03-23T02:43:56;98625.91;;;1.28;88.04
76590;BME280;65471;55.908;37.880;2024-03-23T02:46:22;98643.13;;;1.32;88.41
76590;BME280;65471;55.908;37.880;2024-03-23T02:48:51;98628.19;;;1.31;89.48
76590;BME280;65471;55.908;37.880;2024-03-23T02:51:17;98631.47;;;1.33;89.60
76590;BME280;65471;55.908;37.880;2024-03-23T02:53:43;98625.34;;;1.33;89.18
76590;BME280;65471;55.908;37.880;2024-03-23T02:56:08;98593.97;;;1.22;89.22
76590;BME280;65471;55.908;37.880;2024-03-23T02:58:34;98596.66;;;1.35;89.12
76590;BME280;65471;55.908;37.880;2024-03-23T03:01:00;98600.75;;;1.37;89.05
76590;BME280;65471;55.908;37.880;2024-03-23T03:03:26;98604.22;;;1.38;88.99
76590;BME280;65471;55.908;37.880;2024-03-23T03:05:56;98596.88;;;1.40;89.35
76590;BME280;65471;55.908;37.880;2024-03-23T03:08:22;98598.69;;;1.40;89.35
76590;BME280;65471;55.908;37.880;2024-03-23T03:10:48;98573.31;;;1.37;89.45
76590;BME280;65471;55.908;37.880;2024-03-23T03:13:14;98562.63;;;1.30;89.35
76590;BME280;65471;55.908;37.880;2024-03-23T03:15:43;98578.66;;;1.37;89.32
76590;BME280;65471;55.908;37.880;2024-03-23T03:18:09;98570.44;;;1.38;89.99
76590;BME280;65471;55.908;37.880;2024-03-23T03:20:42;98568.38;;;1.41;89.69
76590;BME280;65471;55.908;37.880;2024-03-23T03:23:07;98566.56;;;1.41;90.15
76590;BME280;65471;55.908;37.880;2024-03-23T03:25:34;98574.97;;;1.45;90.48
76590;BME280;65471;55.908;37.880;2024-03-23T03:28:00;98562.44;;;1.45;90.32
76590;BME280;65471;55.908;37.880;2024-03-23T03:30:26;98556.91;;;1.47;90.65
76590;BME280;65471;55.908;37.880;2024-03-23T03:32:54;98544.84;;;1.44;90.10
76590;BME280;65471;55.908;37.880;2024-03-23T03:35:21;98550.38;;;1.49;90.75
76590;BME280;65471;55.908;37.880;2024-03-23T03:37:47;98549.16;;;1.52;91.03
76590;BME280;65471;55.908;37.880;2024-03-23T03:40:13;98543.41;;;1.48;90.87
76590;BME280;65471;55.908;37.880;2024-03-23T03:42:41;98522.09;;;1.42;91.44
76590;BME280;65471;55.908;37.880;2024-03-23T03:45:07;98529.69;;;1.58;91.51
76590;BME280;65471;55.908;37.880;2024-03-23T03:47:33;98535.44;;;1.62;91.90
76590;BME280;65471;55.908;37.880;2024-03-23T03:49:59;98538.50;;;1.65;91.68
76590;BME280;65471;55.908;37.880;2024-03-23T03:52:25;98523.94;;;1.68;92.37
76590;BME280;65471;55.908;37.880;2024-03-23T03:55:00;98523.53;;;1.71;92.45
76590;BME280;65471;55.908;37.880;2024-03-23T03:57:30;98522.94;;;1.76;92.71
76590;BME280;65471;55.908;37.880;2024-03-23T03:59:56;98513.09;;;1.69;92.86
76590;BME280;65471;55.908;37.880;2024-03-23T04:02:21;98514.72;;;1.77;92.67
76590;BME280;65471;55.908;37.880;2024-03-23T04:04:47;98506.53;;;1.79;93.31
76590;BME280;65471;55.908;37.880;2024-03-23T04:07:13;98498.53;;;1.79;93.66
76590;BME280;65471;55.908;37.880;2024-03-23T04:09:39;98491.56;;;1.78;93.06
76590;BME280;65471;55.908;37.880;2024-03-23T04:12:06;98500.16;;;1.86;94.00
76590;BME280;65471;55.908;37.880;2024-03-23T04:14:32;98496.06;;;1.90;93.79
76590;BME280;65471;55.908;37.880;2024-03-23T04:16:57;98488.69;;;1.93;93.26
76590;BME280;65471;55.908;37.880;2024-03-23T04:19:23;98487.25;;;1.97;93.42
76590;BME280;65471;55.908;37.880;2024-03-23T04:21:49;98483.31;;;1.99;94.04
76590;BME280;65471;55.908;37.880;2024-03-23T04:24:15;98486.63;;;2.01;93.65
76590;BME280;65471;55.908;37.880;2024-03-23T04:26:42;98475.94;;;2.01;93.59
76590;BME280;65471;55.908;37.880;2024-03-23T04:29:08;98460.16;;;2.00;93.45
76590;BME280;65471;55.908;37.880;2024-03-23T04:31:34;98469.78;;;2.01;93.45
76590;BME280;65471;55.908;37.880;2024-03-23T04:34:01;98455.44;;;2.02;94.35
76590;BME280;65471;55.908;37.880;2024-03-23T04:36:27;98451.97;;;2.01;94.15
76590;BME280;65471;55.908;37.880;2024-03-23T04:38:53;98441.28;;;2.01;93.71
76590;BME280;65471;55.908;37.880;2024-03-23T04:41:19;98453.78;;;2.01;93.89
76590;BME280;65471;55.908;37.880;2024-03-23T04:43:45;98446.63;;;2.01;93.62
76590;BME280;65471;55.908;37.880;2024-03-23T04:46:11;98450.72;;;2.04;93.59
76590;BME280;65471;55.908;37.880;2024-03-23T04:48:37;98438.81;;;2.06;93.88
76590;BME280;65471;55.908;37.880;2024-03-23T04:51:03;98444.56;;;2.10;93.83
76590;BME280;65471;55.908;37.880;2024-03-23T04:53:29;98444.34;;;2.12;93.72
76590;BME280;65471;55.908;37.880;2024-03-23T04:55:56;98438.00;;;2.13;94.09
76590;BME280;65471;55.908;37.880;2024-03-23T04:58:23;98439.59;;;2.14;93.64
76590;BME280;65471;55.908;37.880;2024-03-23T05:00:58;98432.22;;;2.16;93.42
76590;BME280;65471;55.908;37.880;2024-03-23T05:03:24;98430.16;;;2.18;94.29
76590;BME280;65471;55.908;37.880;2024-03-23T05:05:50;98428.94;;;2.14;93.46
76590;BME280;65471;55.908;37.880;2024-03-23T05:08:16;98425.44;;;2.20;93.21
76590;BME280;65471;55.908;37.880;2024-03-23T05:10:43;98415.22;;;2.10;93.45
76590;BME280;65471;55.908;37.880;2024-03-23T05:13:09;98427.09;;;2.21;93.42
76590;BME280;65471;55.908;37.880;2024-03-23T05:15:35;98423.38;;;2.22;93.30
76590;BME280;65471;55.908;37.880;2024-03-23T05:18:02;98428.50;;;2.23;94.09
76590;BME280;65471;55.908;37.880;2024-03-23T05:20:27;98421.34;;;2.24;94.00
76590;BME280;65471;55.908;37.880;2024-03-23T05:22:54;98391.03;;;2.05;93.98
76590;BME280;65471;55.908;37.880;2024-03-23T05:25:21;98418.25;;;2.20;94.04
76590;BME280;65471;55.908;37.880;2024-03-23T05:27:47;98422.34;;;2.23;94.50
76590;BME280;65471;55.908;37.880;2024-03-23T05:30:13;98414.34;;;2.23;94.40
76590;BME280;65471;55.908;37.880;2024-03-23T05:32:40;98402.44;;;2.26;94.81
76590;BME280;65471;55.908;37.880;2024-03-23T05:35:08;98401.03;;;2.23;94.50
76590;BME280;65471;55.908;37.880;2024-03-23T05:37:35;98390.13;;;2.24;94.49
76590;BME280;65471;55.908;37.880;2024-03-23T05:40:01;98392.44;;;2.21;94.15
76590;BME280;65471;55.908;37.880;2024-03-23T05:42:30;98395.69;;;2.23;94.16
76590;BME280;65471;55.908;37.880;2024-03-23T05:44:55;98387.91;;;2.21;94.39
76590;BME280;65471;55.908;37.880;2024-03-23T05:47:21;98389.94;;;2.19;95.14
76590;BME280;65471;55.908;37.880;2024-03-23T05:49:47;98387.09;;;2.21;95.09
76590;BME280;65471;55.908;37.880;2024-03-23T05:52:13;98379.28;;;2.19;94.98
76590;BME280;65471;55.908;37.880;2024-03-23T05:54:39;98369.03;;;2.23;94.98
76590;BME280;65471;55.908;37.880;2024-03-23T05:57:06;98368.81;;;2.24;95.40
76590;BME280;65471;55.908;37.880;2024-03-23T05:59:34;98286.19;;;1.72;95.00
76590;BME280;65471;55.908;37.880;2024-03-23T06:02:01;98364.91;;;2.27;95.14
76590;BME280;65471;55.908;37.880;2024-03-23T06:04:26;98366.34;;;2.30;95.24
76590;BME280;65471;55.908;37.880;2024-03-23T06:06:52;98339.09;;;2.21;95.59
76590;BME280;65471;55.908;37.880;2024-03-23T06:09:18;98351.53;;;2.34;95.51
76590;BME280;65471;55.908;37.880;2024-03-23T06:11:46;98353.16;;;2.35;95.58
76590;BME280;65471;55.908;37.880;2024-03-23T06:14:12;98352.94;;;2.36;95.84
76590;BME280;65471;55.908;37.880;2024-03-23T06:16:38;98351.69;;;2.39;95.83
76590;BME280;65471;55.908;37.880;2024-03-23T06:19:03;98348.00;;;2.40;96.48
76590;BME280;65471;55.908;37.880;2024-03-23T06:21:33;98339.44;;;2.31;95.88
76590;BME280;65471;55.908;37.880;2024-03-23T06:23:59;98337.34;;;2.40;96.30
76590;BME280;65471;55.908;37.880;2024-03-23T06:26:25;98345.56;;;2.38;95.81
76590;BME280;65471;55.908;37.880;2024-03-23T06:28:51;98336.13;;;2.36;96.36
76590;BME280;65471;55.908;37.880;2024-03-23T06:31:17;98330.75;;;2.42;96.11
76590;BME280;65471;55.908;37.880;2024-03-23T06:33:43;98336.91;;;2.43;96.79
76590;BME280;65471;55.908;37.880;2024-03-23T06:36:10;98324.38;;;2.44;97.04
76590;BME280;65471;55.908;37.880;2024-03-23T06:38:37;98320.69;;;2.45;96.41
76590;BME280;65471;55.908;37.880;2024-03-23T06:41:06;98325.81;;;2.46;96.40
76590;BME280;65471;55.908;37.880;2024-03-23T06:43:32;98329.09;;;2.48;96.80
76590;BME280;65471;55.908;37.880;2024-03-23T06:45:58;98329.09;;;2.48;97.07
76590;BME280;65471;55.908;37.880;2024-03-23T06:48:24;98316.56;;;2.49;97.28
76590;BME280;65471;55.908;37.880;2024-03-23T06:50:55;98319.22;;;2.49;97.24
76590;BME280;65471;55.908;37.880;2024-03-23T06:53:21;98315.53;;;2.50;97.24
76590;BME280;65471;55.908;37.880;2024-03-23T06:55:54;98294.44;;;2.41;97.40
76590;BME280;65471;55.908;37.880;2024-03-23T06:58:22;98302.34;;;2.55;97.41
76590;BME280;65471;55.908;37.880;2024-03-23T07:00:48;98305.63;;;2.57;97.09
76590;BME280;65471;55.908;37.880;2024-03-23T07:03:16;98294.97;;;2.57;97.42
76590;BME280;65471;55.908;37.880;2024-03-23T07:05:42;98298.66;;;2.56;96.97
76590;BME280;65471;55.908;37.880;2024-03-23T07:08:08;98296.59;;;2.58;97.24
76590;BME280;65471;55.908;37.880;2024-03-23T07:10:34;98286.94;;;2.57;97.70
76590;BME280;65471;55.908;37.880;2024-03-23T07:13:01;98283.84;;;2.60;96.99
76590;BME280;65471;55.908;37.880;2024-03-23T07:15:27;98294.09;;;2.63;97.39
76590;BME280;65471;55.908;37.880;2024-03-23T07:17:53;98289.19;;;2.60;97.63
76590;BME280;65471;55.908;37.880;2024-03-23T07:20:19;98286.91;;;2.64;97.74
76590;BME280;65471;55.908;37.880;2024-03-23T07:22:46;98278.69;;;2.65;97.42
76590;BME280;65471;55.908;37.880;2024-03-23T07:25:13;98283.81;;;2.67;97.77
76590;BME280;65471;55.908;37.880;2024-03-23T07:27:39;98283.81;;;2.67;97.41
76590;BME280;65471;55.908;37.880;2024-03-23T07:30:06;98285.81;;;2.71;97.53
76590;BME280;65471;55.908;37.880;2024-03-23T07:32:32;98282.34;;;2.71;98.38
76590;BME280;65471;55.908;37.880;2024-03-23T07:34:58;98280.06;;;2.68;98.04
76590;BME280;65471;55.908;37.880;2024-03-23T07:37:24;98279.44;;;2.72;97.86
76590;BME280;65471;55.908;37.880;2024-03-23T07:39:51;98279.22;;;2.74;98.21
76590;BME280;65471;55.908;37.880;2024-03-23T07:42:17;98273.22;;;2.79;98.31
76590;BME280;65471;55.908;37.880;2024-03-23T07:44:43;98261.75;;;2.78;98.16
76590;BME280;65471;55.908;37.880;2024-03-23T07:47:09;98263.75;;;2.83;98.04
76590;BME280;65471;55.908;37.880;2024-03-23T07:49:35;98273.19;;;2.85;98.34
76590;BME280;65471;55.908;37.880;2024-03-23T07:52:01;98264.34;;;2.85;98.12
76590;BME280;65471;55.908;37.880;2024-03-23T07:54:27;98267.00;;;2.85;98.06
76590;BME280;65471;55.908;37.880;2024-03-23T07:56:53;98263.75;;;2.83;98.07
76590;BME280;65471;55.908;37.880;2024-03-23T07:59:19;98260.06;;;2.84;97.59
76590;BME280;65471;55.908;37.880;2024-03-23T08:01:45;98263.31;;;2.86;98.01
76590;BME280;65471;55.908;37.880;2024-03-23T08:04:11;98258.56;;;2.88;98.19
76590;BME280;65471;55.908;37.880;2024-03-23T08:06:37;98246.31;;;2.80;98.39
76590;BME280;65471;55.908;37.880;2024-03-23T08:09:03;98250.19;;;2.84;98.16
76590;BME280;65471;55.908;37.880;2024-03-23T08:11:30;98250.72;;;2.93;98.09
76590;BME280;65471;55.908;37.880;2024-03-23T08:13:57;98247.59;;;2.96;98.30
76590;BME280;65471;55.908;37.880;2024-03-23T08:16:23;98234.75;;;2.86;98.34
76590;BME280;65471;55.908;37.880;2024-03-23T08:18:53;98251.25;;;3.02;97.87
76590;BME280;65471;55.908;37.880;2024-03-23T08:21:21;98239.16;;;2.99;98.08
76590;BME280;65471;55.908;37.880;2024-03-23T08:23:47;98233.81;;;2.99;98.07
76590;BME280;65471;55.908;37.880;2024-03-23T08:26:15;98239.75;;;3.01;97.72
76590;BME280;65471;55.908;37.880;2024-03-23T08:28:41;98217.88;;;2.92;98.03
76590;BME280;65471;55.908;37.880;2024-03-23T08:31:08;98235.41;;;3.07;98.51
76590;BME280;65471;55.908;37.880;2024-03-23T08:33:35;98234.56;;;3.06;98.65
76590;BME280;65471;55.908;37.880;2024-03-23T08:38:28;98235.75;;;3.10;98.18
76590;BME280;65471;55.908;37.880;2024-03-23T08:41:05;98226.50;;;3.13;98.16
76590;BME280;65471;55.908;37.880;2024-03-23T08:43:33;98225.22;;;3.16;97.82
76590;BME280;65471;55.908;37.880;2024-03-23T08:48:32;98211.13;;;3.08;98.08
76590;BME280;65471;55.908;37.880;2024-03-23T08:51:06;98217.66;;;3.13;98.14
76590;BME280;65471;55.908;37.880;2024-03-23T08:53:32;98213.97;;;3.14;97.79
76590;BME280;65471;55.908;37.880;2024-03-23T08:55:59;98217.00;;;3.17;98.52
76590;BME280;65471;55.908;37.880;2024-03-23T08:58:27;98213.53;;;3.17;98.16
76590;BME280;65471;55.908;37.880;2024-03-23T09:00:55;98210.84;;;3.17;97.99
76590;BME280;65471;55.908;37.880;2024-03-23T09:03:24;98215.75;;;3.20;98.01
76590;BME280;65471;55.908;37.880;2024-03-23T09:05:52;98199.72;;;3.20;98.10
76590;BME280;65471;55.908;37.880;2024-03-23T09:08:18;98204.03;;;3.21;98.42
76590;BME280;65471;55.908;37.880;2024-03-23T09:10:45;98198.81;;;3.26;97.85
76590;BME280;65471;55.908;37.880;2024-03-23T09:13:11;98203.34;;;3.25;98.19
76590;BME280;65471;55.908;37.880;2024-03-23T09:15:45;98182.94;;;3.31;98.35
76590;BME280;65471;55.908;37.880;2024-03-23T09:18:11;98185.63;;;3.31;98.28
76590;BME280;65471;55.908;37.880;2024-03-23T09:20:37;98197.72;;;3.34;98.42
76590;BME280;65471;55.908;37.880;2024-03-23T09:23:03;98186.81;;;3.35;98.16
76590;BME280;65471;55.908;37.880;2024-03-23T09:25:29;98164.31;;;3.24;98.04
76590;BME280;65471;55.908;37.880;2024-03-23T09:27:55;98192.72;;;3.37;98.02
76590;BME280;65471;55.908;37.880;2024-03-23T09:30:20;98192.72;;;3.37;98.05
76590;BME280;65471;55.908;37.880;2024-03-23T09:32:46;98180.41;;;3.36;98.17
76590;BME280;65471;55.908;37.880;2024-03-23T09:35:12;98171.22;;;3.32;98.26
76590;BME280;65471;55.908;37.880;2024-03-23T09:37:38;98188.56;;;3.41;97.93
76590;BME280;65471;55.908;37.880;2024-03-23T09:40:11;98176.63;;;3.44;98.60
76590;BME280;65471;55.908;37.880;2024-03-23T09:42:38;98166.75;;;3.44;98.10
76590;BME280;65471;55.908;37.880;2024-03-23T09:45:16;98156.19;;;3.50;98.13
76590;BME280;65471;55.908;37.880;2024-03-23T09:47:42;98162.97;;;3.52;98.47
76590;BME280;65471;55.908;37.880;2024-03-23T09:50:09;98162.97;;;3.52;98.06
76590;BME280;65471;55.908;37.880;2024-03-23T09:52:35;98161.09;;;3.53;98.01
76590;BME280;65471;55.908;37.880;2024-03-23T09:55:01;98165.97;;;3.56;97.86
76590;BME280;65471;55.908;37.880;2024-03-23T09:57:29;98166.81;;;3.56;97.87
76590;BME280;65471;55.908;37.880;2024-03-23T09:59:55;98163.31;;;3.56;98.15
76590;BME280;65471;55.908;37.880;2024-03-23T10:02:24;98163.31;;;3.56;97.87
76590;BME280;65471;55.908;37.880;2024-03-23T10:04:50;98146.69;;;3.54;97.96
76590;BME280;65471;55.908;37.880;2024-03-23T10:07:19;98158.81;;;3.56;97.92
76590;BME280;65471;55.908;37.880;2024-03-23T10:09:46;98143.06;;;3.48;98.10
76590;BME280;65471;55.908;37.880;2024-03-23T10:12:18;98153.31;;;3.51;98.66
76590;BME280;65471;55.908;37.880;2024-03-23T10:14:45;98160.63;;;3.56;98.61
76590;BME280;65471;55.908;37.880;2024-03-23T10:17:21;98151.59;;;3.57;98.29
76590;BME280;65471;55.908;37.880;2024-03-23T10:19:52;98129.56;;;3.43;98.42
76590;BME280;65471;55.908;37.880;2024-03-23T10:22:22;98148.84;;;3.63;98.13
76590;BME280;65471;55.908;37.880;2024-03-23T10:24:49;98152.88;;;3.66;98.11
76590;BME280;65471;55.908;37.880;2024-03-23T10:27:19;98158.22;;;3.66;97.99
76590;BME280;65471;55.908;37.880;2024-03-23T10:29:46;98156.41;;;3.67;98.47
76590;BME280;65471;55.908;37.880;2024-03-23T10:32:14;98154.28;;;3.69;98.06
76590;BME280;65471;55.908;37.880;2024-03-23T10:34:41;98152.22;;;3.71;98.35
76590;BME280;65471;55.908;37.880;2024-03-23T10:37:07;98146.66;;;3.72;98.46
76590;BME280;65471;55.908;37.880;2024-03-23T10:39:38;98147.53;;;3.66;98.17
76590;BME280;65471;55.908;37.880;2024-03-23T10:42:08;98148.72;;;3.70;97.91
76590;BME280;65471;55.908;37.880;2024-03-23T10:44:36;98150.34;;;3.71;97.91
76590;BME280;65471;55.908;37.880;2024-03-23T10:47:03;98143.75;;;3.74;98.18
76590;BME280;65471;55.908;37.880;2024-03-23T10:49:34;98142.25;;;3.78;97.77
76590;BME280;65471;55.908;37.880;2024-03-23T10:52:03;98150.28;;;3.78;97.78
76590;BME280;65471;55.908;37.880;2024-03-23T10:54:30;98146.53;;;3.79;97.74
76590;BME280;65471;55.908;37.880;2024-03-23T10:57:12;98142.38;;;3.83;97.64
76590;BME280;65471;55.908;37.880;2024-03-23T10:59:39;98129.59;;;3.85;98.05
76590;BME280;65471;55.908;37.880;2024-03-23T11:02:06;98136.34;;;3.88;97.98
76590;BME280;65471;55.908;37.880;2024-03-23T11:04:36;98139.84;;;3.88;97.44
76590;BME280;65471;55.908;37.880;2024-03-23T11:07:31;98150.53;;;3.88;97.84
76590;BME280;65471;55.908;37.880;2024-03-23T11:09:58;98147.63;;;3.90;97.39
76590;BME280;65471;55.908;37.880;2024-03-23T11:12:26;98142.75;;;3.87;97.22
76590;BME280;65471;55.908;37.880;2024-03-23T11:15:25;98137.72;;;3.90;97.38
76590;BME280;65471;55.908;37.880;2024-03-23T11:18:07;98124.38;;;3.90;97.46
76590;BME280;65471;55.908;37.880;2024-03-23T11:20:37;98130.28;;;3.80;97.13
76590;BME280;65471;55.908;37.880;2024-03-23T11:23:04;98129.47;;;3.92;97.39
76590;BME280;65471;55.908;37.880;2024-03-23T11:25:30;98108.44;;;3.84;97.30
76590;BME280;65471;55.908;37.880;2024-03-23T11:27:58;98129.28;;;3.93;97.08
76590;BME280;65471;55.908;37.880;2024-03-23T11:30:34;98052.22;;;3.48;97.38
76590;BME280;65471;55.908;37.880;2024-03-23T11:33:02;98118.13;;;3.96;97.45
76590;BME280;65471;55.908;37.880;2024-03-23T11:35:32;98105.88;;;3.89;97.08
76590;BME280;65471;55.908;37.880;2024-03-23T11:38:13;98125.91;;;3.98;97.24
76590;BME280;65471;55.908;37.880;2024-03-23T11:40:49;98122.19;;;3.99;97.59
76590;BME280;65471;55.908;37.880;2024-03-23T11:43:17;98104.38;;;3.93;97.21
76590;BME280;65471;55.908;37.880;2024-03-23T11:45:45;98108.94;;;4.04;97.16
76590;BME280;65471;55.908;37.880;2024-03-23T11:48:16;98102.53;;;4.05;97.66
76590;BME280;65471;55.908;37.880;2024-03-23T11:50:46;98111.38;;;4.06;97.06
76590;BME280;65471;55.908;37.880;2024-03-23T11:53:20;98113.09;;;4.00;97.19
76590;BME280;65471;55.908;37.880;2024-03-23T11:55:48;98105.91;;;4.01;97.04
76590;BME280;65471;55.908;37.880;2024-03-23T11:58:19;98108.38;;;4.02;96.94
76590;BME280;65471;55.908;37.880;2024-03-23T12:03:23;98105.56;;;3.97;96.59
76590;BME280;65471;55.908;37.880;2024-03-23T12:06:01;98098.56;;;3.96;96.99
76590;BME280;65471;55.908;37.880;2024-03-23T12:08:32;98103.47;;;3.99;97.02
76590;BME280;65471;55.908;37.880;2024-03-23T12:11:16;98103.25;;;4.01;97.03
76590;BME280;65471;55.908;37.880;2024-03-23T12:13:43;98099.28;;;4.03;96.83
76590;BME280;65471;55.908;37.880;2024-03-23T12:16:20;98103.94;;;4.08;97.10
76590;BME280;65471;55.908;37.880;2024-03-23T12:18:48;98107.56;;;4.13;97.18
76590;BME280;65471;55.908;37.880;2024-03-23T12:21:17;98086.50;;;4.05;97.35
76590;BME280;65471;55.908;37.880;2024-03-23T12:23:44;98106.16;;;4.23;97.24
76590;BME280;65471;55.908;37.880;2024-03-23T12:26:12;98108.59;;;4.24;97.42
76590;BME280;65471;55.908;37.880;2024-03-23T12:28:39;98102.22;;;4.25;97.31
76590;BME280;65471;55.908;37.880;2024-03-23T12:31:05;98101.66;;;4.23;97.25
76590;BME280;65471;55.908;37.880;2024-03-23T12:33:34;98103.25;;;4.24;97.50
76590;BME280;65471;55.908;37.880;2024-03-23T12:35:59;98108.03;;;4.22;97.73
76590;BME280;65471;55.908;37.880;2024-03-23T12:38:25;98103.38;;;4.18;97.66
76590;BME280;65471;55.908;37.880;2024-03-23T12:40:51;98100.72;;;4.18;97.65
76590;BME280;65471;55.908;37.880;2024-03-23T12:43:18;98106.50;;;4.14;97.56
76590;BME280;65471;55.908;37.880;2024-03-23T12:45:47;98098.94;;;4.11;98.01
76590;BME280;65471;55.908;37.880;2024-03-23T12:48:14;98092.31;;;4.02;97.94
76590;BME280;65471;55.908;37.880;2024-03-23T12:50:40;98104.84;;;4.02;97.98
76590;BME280;65471;55.908;37.880;2024-03-23T12:53:06;98102.41;;;4.00;97.47
76590;BME280;65471;55.908;37.880;2024-03-23T12:55:32;98089.03;;;4.00;97.95
76590;BME280;65471;55.908;37.880;2024-03-23T12:58:00;98092.56;;;4.01;98.58
76590;BME280;65471;55.908;37.880;2024-03-23T13:00:26;98089.03;;;4.00;98.08
76590;BME280;65471;55.908;37.880;2024-03-23T13:02:52;98081.47;;;3.97;98.67
76590;BME280;65471;55.908;37.880;2024-03-23T13:05:18;98084.75;;;3.99;98.29
76590;BME280;65471;55.908;37.880;2024-03-23T13:07:44;98083.94;;;3.98;98.56
76590;BME280;65471;55.908;37.880;2024-03-23T13:10:09;98088.34;;;3.93;98.42
76590;BME280;65471;55.908;37.880;2024-03-23T13:12:36;98084.38;;;3.95;98.87
76590;BME280;65471;55.908;37.880;2024-03-23T13:15:02;98081.25;;;3.98;98.69
76590;BME280;65471;55.908;37.880;2024-03-23T13:17:32;98090.09;;;3.99;98.95
76590;BME280;65471;55.908;37.880;2024-03-23T13:19:58;98079.84;;;3.96;98.63
76590;BME280;65471;55.908;37.880;2024-03-23T13:22:24;98077.63;;;3.93;98.78
76590;BME280;65471;55.908;37.880;2024-03-23T13:24:50;98085.31;;;3.89;98.80
76590;BME280;65471;55.908;37.880;2024-03-23T13:27:16;98076.94;;;3.86;99.19
76590;BME280;65471;55.908;37.880;2024-03-23T13:29:42;98079.59;;;3.86;99.01
76590;BME280;65471;55.908;37.880;2024-03-23T13:32:08;98081.72;;;3.84;99.32
76590;BME280;65471;55.908;37.880;2024-03-23T13:34:35;98080.88;;;3.83;98.96
76590;BME280;65471;55.908;37.880;2024-03-23T13:37:01;98079.38;;;3.87;98.92
76590;BME280;65471;55.908;37.880;2024-03-23T13:39:27;98074.50;;;3.84;99.30
76590;BME280;65471;55.908;37.880;2024-03-23T13:41:54;98072.63;;;3.85;98.79
76590;BME280;65471;55.908;37.880;2024-03-23T13:44:21;98075.53;;;3.83;99.22
76590;BME280;65471;55.908;37.880;2024-03-23T13:46:48;98067.16;;;3.79;99.22
76590;BME280;65471;55.908;37.880;2024-03-23T13:51:54;98067.63;;;3.76;99.29
76590;BME280;65471;55.908;37.880;2024-03-23T13:54:20;98074.72;;;3.83;99.64
76590;BME280;65471;55.908;37.880;2024-03-23T13:56:50;98043.06;;;3.68;99.79
76590;BME280;65471;55.908;37.880;2024-03-23T13:59:17;98074.59;;;3.77;99.92
76590;BME280;65471;55.908;37.880;2024-03-23T14:01:44;98069.25;;;3.77;99.72
76590;BME280;65471;55.908;37.880;2024-03-23T14:04:12;98062.28;;;3.76;100.00